sensor_id;sensor_type;location;lat;lon;timestamp;pressure;altitude;pressure_sealevel;temperature;humidity
24762;BME280;12865;51.934;10.330;2022-09-24T00:00:47;98892.41;;;12.38;99.93
24762;BME280;12865;51.934;10.330;2022-09-24T00:03:36;98894.25;;;12.38;100.00
24762;BME280;12865;51.934;10.330;2022-09-24T00:06:22;98895.19;;;12.29;100.00
24762;BME280;12865;51.934;10.330;2022-09-24T00:09:08;98890.19;;;12.26;100.00
24762;BME280;12865;51.934;10.330;2022-09-24T00:11:54;98887.03;;;12.30;100.00
24762;BME280;12865;51.934;10.330;2022-09-24T00:14:40;98894.22;;;12.30;100.00
24762;BME280;12865;51.934;10.330;2022-09-24T00:17:25;98890.78;;;12.19;100.00
24762;BME280;12865;51.934;10.330;2022-09-24T00:20:11;98888.66;;;12.23;100.00
24762;BME280;12865;51.934;10.330;2022-09-24T00:22:57;98884.94;;;12.16;100.00
24762;BME280;12865;51.934;10.330;2022-09-24T00:25:44;98890.44;;;12.14;100.00
24762;BME280;12865;51.934;10.330;2022-09-24T00:28:52;98885.16;;;12.23;100.00
24762;BME280;12865;51.934;10.330;2022-09-24T00:31:38;98884.84;;;12.26;100.00
24762;BME280;12865;51.934;10.330;2022-09-24T00:34:23;98887.72;;;12.32;100.00
24762;BME280;12865;51.934;10.330;2022-09-24T00:37:09;98883.31;;;12.23;100.00
24762;BME280;12865;51.934;10.330;2022-09-24T00:39:55;98893.25;;;12.13;100.00
24762;BME280;12865;51.934;10.330;2022-09-24T00:42:41;98885.31;;;12.21;100.00
24762;BME280;12865;51.934;10.330;2022-09-24T00:45:28;98888.19;;;12.28;100.00
24762;BME280;12865;51.934;10.330;2022-09-24T00:48:15;98882.97;;;12.18;100.00
24762;BME280;12865;51.934;10.330;2022-09-24T00:51:02;98877.75;;;12.16;100.00
24762;BME280;12865;51.934;10.330;2022-09-24T00:53:51;98883.25;;;12.15;100.00
24762;BME280;12865;51.934;10.330;2022-09-24T00:56:40;98878.06;;;12.13;100.00
24762;BME280;12865;51.934;10.330;2022-09-24T00:59:28;98877.19;;;12.05;100.00
24762;BME280;12865;51.934;10.330;2022-09-24T01:02:14;98886.06;;;12.05;100.00
24762;BME280;12865;51.934;10.330;2022-09-24T01:05:00;98876.94;;;12.16;100.00
24762;BME280;12865;51.934;10.330;2022-09-24T01:07:46;98875.53;;;12.04;100.00
24762;BME280;12865;51.934;10.330;2022-09-24T01:13:40;98883.47;;;11.96;100.00
24762;BME280;12865;51.934;10.330;2022-09-24T01:26:11;98868.91;;;11.90;100.00
24762;BME280;12865;51.934;10.330;2022-09-24T01:32:45;98868.78;;;12.00;100.00
24762;BME280;12865;51.934;10.330;2022-09-24T01:35:36;98873.31;;;11.99;100.00
24762;BME280;12865;51.934;10.330;2022-09-24T01:38:28;98863.88;;;11.87;100.00
24762;BME280;12865;51.934;10.330;2022-09-24T01:41:16;98866.03;;;11.84;100.00
24762;BME280;12865;51.934;10.330;2022-09-24T01:44:03;98863.81;;;11.79;100.00
24762;BME280;12865;51.934;10.330;2022-09-24T01:46:52;98857.25;;;11.73;100.00
24762;BME280;12865;51.934;10.330;2022-09-24T01:49:38;98852.88;;;11.72;100.00
24762;BME280;12865;51.934;10.330;2022-09-24T01:52:29;98852.28;;;11.78;100.00
24762;BME280;12865;51.934;10.330;2022-09-24T01:55:18;98858.31;;;11.80;100.00
24762;BME280;12865;51.934;10.330;2022-09-24T01:58:10;98854.88;;;11.70;100.00
24762;BME280;12865;51.934;10.330;2022-09-24T02:01:02;98849.72;;;11.69;100.00
24762;BME280;12865;51.934;10.330;2022-09-24T02:03:55;98850.09;;;11.74;100.00
24762;BME280;12865;51.934;10.330;2022-09-24T02:09:48;98846.97;;;11.61;100.00
24762;BME280;12865;51.934;10.330;2022-09-24T02:12:36;98845.66;;;11.65;100.00
24762;BME280;12865;51.934;10.330;2022-09-24T02:15:31;98838.69;;;11.72;100.00
24762;BME280;12865;51.934;10.330;2022-09-24T02:18:21;98846.81;;;11.80;100.00
24762;BME280;12865;51.934;10.330;2022-09-24T02:21:11;98842.94;;;11.74;100.00
24762;BME280;12865;51.934;10.330;2022-09-24T02:24:11;98839.41;;;11.74;100.00
24762;BME280;12865;51.934;10.330;2022-09-24T02:26:58;98836.47;;;11.85;100.00
24762;BME280;12865;51.934;10.330;2022-09-24T02:29:44;98835.44;;;11.78;100.00
24762;BME280;12865;51.934;10.330;2022-09-24T02:32:33;98839.94;;;11.77;100.00
24762;BME280;12865;51.934;10.330;2022-09-24T02:35:20;98830.63;;;11.82;100.00
24762;BME280;12865;51.934;10.330;2022-09-24T02:38:15;98835.75;;;11.75;100.00
24762;BME280;12865;51.934;10.330;2022-09-24T02:41:00;98827.88;;;11.73;100.00
24762;BME280;12865;51.934;10.330;2022-09-24T02:43:46;98821.41;;;11.76;100.00
24762;BME280;12865;51.934;10.330;2022-09-24T02:46:32;98830.69;;;11.90;100.00
24762;BME280;12865;51.934;10.330;2022-09-24T02:49:18;98834.34;;;11.89;100.00
24762;BME280;12865;51.934;10.330;2022-09-24T02:52:03;98829.78;;;12.07;100.00
24762;BME280;12865;51.934;10.330;2022-09-24T02:54:49;98831.19;;;11.93;100.00
24762;BME280;12865;51.934;10.330;2022-09-24T02:57:35;98833.72;;;11.95;100.00
24762;BME280;12865;51.934;10.330;2022-09-24T03:00:21;98818.16;;;11.90;100.00
24762;BME280;12865;51.934;10.330;2022-09-24T03:03:07;98821.69;;;11.91;100.00
24762;BME280;12865;51.934;10.330;2022-09-24T03:05:52;98824.16;;;11.92;100.00
24762;BME280;12865;51.934;10.330;2022-09-24T03:08:40;98824.81;;;11.86;100.00
24762;BME280;12865;51.934;10.330;2022-09-24T03:11:27;98822.97;;;11.87;100.00
24762;BME280;12865;51.934;10.330;2022-09-24T03:14:13;98823.25;;;11.75;100.00
24762;BME280;12865;51.934;10.330;2022-09-24T03:16:59;98819.59;;;11.76;100.00
24762;BME280;12865;51.934;10.330;2022-09-24T03:19:44;98816.47;;;11.63;100.00
24762;BME280;12865;51.934;10.330;2022-09-24T03:22:30;98822.47;;;11.65;100.00
24762;BME280;12865;51.934;10.330;2022-09-24T03:25:16;98815.97;;;11.68;100.00
24762;BME280;12865;51.934;10.330;2022-09-24T03:28:02;98819.16;;;11.71;100.00
24762;BME280;12865;51.934;10.330;2022-09-24T03:30:48;98813.16;;;11.69;100.00
24762;BME280;12865;51.934;10.330;2022-09-24T03:33:47;98809.19;;;11.73;100.00
24762;BME280;12865;51.934;10.330;2022-09-24T03:36:33;98808.91;;;11.76;100.00
24762;BME280;12865;51.934;10.330;2022-09-24T03:39:20;98802.31;;;11.71;100.00
24762;BME280;12865;51.934;10.330;2022-09-24T03:42:15;98801.03;;;11.75;100.00
24762;BME280;12865;51.934;10.330;2022-09-24T03:45:00;98807.22;;;11.75;100.00
24762;BME280;12865;51.934;10.330;2022-09-24T03:47:46;98813.91;;;11.79;100.00
24762;BME280;12865;51.934;10.330;2022-09-24T03:50:35;98804.56;;;11.75;100.00
24762;BME280;12865;51.934;10.330;2022-09-24T03:53:21;98799.81;;;11.69;100.00
24762;BME280;12865;51.934;10.330;2022-09-24T03:56:08;98791.81;;;11.69;100.00
24762;BME280;12865;51.934;10.330;2022-09-24T03:58:54;98798.44;;;11.65;100.00
24762;BME280;12865;51.934;10.330;2022-09-24T04:01:39;98793.31;;;11.72;100.00
24762;BME280;12865;51.934;10.330;2022-09-24T04:04:25;98787.31;;;11.70;100.00
24762;BME280;12865;51.934;10.330;2022-09-24T04:07:10;98788.44;;;11.67;100.00
24762;BME280;12865;51.934;10.330;2022-09-24T04:09:56;98777.34;;;11.54;100.00
24762;BME280;12865;51.934;10.330;2022-09-24T04:12:42;98788.25;;;11.61;100.00
24762;BME280;12865;51.934;10.330;2022-09-24T04:15:28;98787.31;;;11.70;100.00
24762;BME280;12865;51.934;10.330;2022-09-24T04:18:15;98786.41;;;11.61;100.00
24762;BME280;12865;51.934;10.330;2022-09-24T04:21:00;98783.41;;;11.64;100.00
24762;BME280;12865;51.934;10.330;2022-09-24T04:23:46;98783.75;;;11.61;100.00
24762;BME280;12865;51.934;10.330;2022-09-24T04:26:32;98791.22;;;11.58;100.00
24762;BME280;12865;51.934;10.330;2022-09-24T04:29:17;98783.38;;;11.56;100.00
24762;BME280;12865;51.934;10.330;2022-09-24T04:32:03;98788.88;;;11.55;100.00
24762;BME280;12865;51.934;10.330;2022-09-24T04:34:49;98793.44;;;11.62;100.00
24762;BME280;12865;51.934;10.330;2022-09-24T04:37:35;98789.31;;;11.50;100.00
24762;BME280;12865;51.934;10.330;2022-09-24T04:40:21;98785.81;;;11.50;100.00
24762;BME280;12865;51.934;10.330;2022-09-24T04:43:07;98786.84;;;11.57;100.00
24762;BME280;12865;51.934;10.330;2022-09-24T04:45:55;98792.69;;;11.52;100.00
24762;BME280;12865;51.934;10.330;2022-09-24T04:48:41;98793.50;;;11.53;100.00
24762;BME280;12865;51.934;10.330;2022-09-24T04:51:27;98788.22;;;11.35;100.00
24762;BME280;12865;51.934;10.330;2022-09-24T04:54:12;98795.91;;;11.38;100.00
24762;BME280;12865;51.934;10.330;2022-09-24T04:56:58;98795.28;;;11.44;100.00
24762;BME280;12865;51.934;10.330;2022-09-24T04:59:43;98796.47;;;11.24;100.00
24762;BME280;12865;51.934;10.330;2022-09-24T05:02:30;98798.44;;;11.22;100.00
24762;BME280;12865;51.934;10.330;2022-09-24T05:05:15;98803.03;;;11.12;100.00
24762;BME280;12865;51.934;10.330;2022-09-24T05:08:01;98804.16;;;11.09;100.00
24762;BME280;12865;51.934;10.330;2022-09-24T05:10:47;98798.84;;;11.09;100.00
24762;BME280;12865;51.934;10.330;2022-09-24T05:13:33;98800.00;;;11.07;100.00
24762;BME280;12865;51.934;10.330;2022-09-24T05:16:20;98800.03;;;11.15;100.00
24762;BME280;12865;51.934;10.330;2022-09-24T05:19:06;98801.72;;;11.16;100.00
24762;BME280;12865;51.934;10.330;2022-09-24T05:21:52;98800.44;;;11.20;100.00
24762;BME280;12865;51.934;10.330;2022-09-24T05:24:38;98801.94;;;11.22;100.00
24762;BME280;12865;51.934;10.330;2022-09-24T05:27:23;98802.34;;;11.27;100.00
24762;BME280;12865;51.934;10.330;2022-09-24T05:30:09;98808.19;;;11.31;100.00
24762;BME280;12865;51.934;10.330;2022-09-24T05:32:55;98802.84;;;11.31;100.00
24762;BME280;12865;51.934;10.330;2022-09-24T05:35:41;98799.88;;;11.34;100.00
24762;BME280;12865;51.934;10.330;2022-09-24T05:38:27;98802.66;;;11.50;100.00
24762;BME280;12865;51.934;10.330;2022-09-24T05:41:14;98803.34;;;11.52;100.00
24762;BME280;12865;51.934;10.330;2022-09-24T05:44:00;98804.03;;;11.54;100.00
24762;BME280;12865;51.934;10.330;2022-09-24T05:46:49;98806.66;;;11.46;100.00
24762;BME280;12865;51.934;10.330;2022-09-24T05:49:36;98808.00;;;11.50;100.00
24762;BME280;12865;51.934;10.330;2022-09-24T05:52:22;98812.34;;;11.51;100.00
24762;BME280;12865;51.934;10.330;2022-09-24T05:55:09;98814.72;;;11.54;100.00
24762;BME280;12865;51.934;10.330;2022-09-24T05:57:55;98814.88;;;11.53;100.00
24762;BME280;12865;51.934;10.330;2022-09-24T06:00:46;98812.19;;;11.53;100.00
24762;BME280;12865;51.934;10.330;2022-09-24T06:03:31;98810.38;;;11.53;100.00
24762;BME280;12865;51.934;10.330;2022-09-24T06:06:17;98813.03;;;11.53;100.00
24762;BME280;12865;51.934;10.330;2022-09-24T06:09:03;98819.84;;;11.48;100.00
24762;BME280;12865;51.934;10.330;2022-09-24T06:11:49;98814.81;;;11.45;100.00
24762;BME280;12865;51.934;10.330;2022-09-24T06:14:37;98817.25;;;11.38;100.00
24762;BME280;12865;51.934;10.330;2022-09-24T06:17:23;98818.03;;;11.30;100.00
24762;BME280;12865;51.934;10.330;2022-09-24T06:20:10;98817.59;;;11.35;100.00
24762;BME280;12865;51.934;10.330;2022-09-24T06:22:56;98817.59;;;11.35;100.00
24762;BME280;12865;51.934;10.330;2022-09-24T06:25:48;98815.97;;;11.42;100.00
24762;BME280;12865;51.934;10.330;2022-09-24T06:28:35;98809.78;;;11.41;100.00
24762;BME280;12865;51.934;10.330;2022-09-24T06:31:21;98817.03;;;11.49;100.00
24762;BME280;12865;51.934;10.330;2022-09-24T06:34:07;98811.22;;;11.54;100.00
24762;BME280;12865;51.934;10.330;2022-09-24T06:36:53;98811.06;;;11.55;100.00
24762;BME280;12865;51.934;10.330;2022-09-24T06:39:39;98816.91;;;11.59;100.00
24762;BME280;12865;51.934;10.330;2022-09-24T06:42:25;98813.25;;;11.60;100.00
24762;BME280;12865;51.934;10.330;2022-09-24T06:45:12;98813.63;;;11.65;100.00
24762;BME280;12865;51.934;10.330;2022-09-24T06:47:59;98810.88;;;11.74;100.00
24762;BME280;12865;51.934;10.330;2022-09-24T06:50:45;98812.56;;;11.75;100.00
24762;BME280;12865;51.934;10.330;2022-09-24T06:53:31;98816.72;;;11.78;100.00
24762;BME280;12865;51.934;10.330;2022-09-24T06:56:17;98817.56;;;11.78;100.00
24762;BME280;12865;51.934;10.330;2022-09-24T06:59:03;98812.78;;;11.82;100.00
24762;BME280;12865;51.934;10.330;2022-09-24T07:01:48;98814.75;;;11.80;100.00
24762;BME280;12865;51.934;10.330;2022-09-24T07:04:34;98810.88;;;11.74;100.00
24762;BME280;12865;51.934;10.330;2022-09-24T07:07:20;98823.47;;;11.82;100.00
24762;BME280;12865;51.934;10.330;2022-09-24T07:10:16;98814.22;;;12.02;100.00
24762;BME280;12865;51.934;10.330;2022-09-24T07:13:02;98817.09;;;12.09;100.00
24762;BME280;12865;51.934;10.330;2022-09-24T07:15:51;98814.97;;;12.20;100.00
24762;BME280;12865;51.934;10.330;2022-09-24T07:18:37;98812.19;;;12.30;100.00
24762;BME280;12865;51.934;10.330;2022-09-24T07:21:23;98821.72;;;12.33;100.00
24762;BME280;12865;51.934;10.330;2022-09-24T07:24:08;98818.22;;;12.32;100.00
24762;BME280;12865;51.934;10.330;2022-09-24T07:26:54;98815.59;;;12.40;100.00
24762;BME280;12865;51.934;10.330;2022-09-24T07:29:40;98819.41;;;12.38;100.00
24762;BME280;12865;51.934;10.330;2022-09-24T07:32:25;98816.91;;;12.44;100.00
24762;BME280;12865;51.934;10.330;2022-09-24T07:35:11;98820.28;;;12.54;100.00
24762;BME280;12865;51.934;10.330;2022-09-24T07:37:59;98820.16;;;12.64;100.00
24762;BME280;12865;51.934;10.330;2022-09-24T07:40:45;98818.84;;;12.68;100.00
24762;BME280;12865;51.934;10.330;2022-09-24T07:43:30;98820.03;;;12.74;100.00
24762;BME280;12865;51.934;10.330;2022-09-24T07:46:17;98820.38;;;12.79;100.00
24762;BME280;12865;51.934;10.330;2022-09-24T07:49:04;98826.91;;;12.84;100.00
24762;BME280;12865;51.934;10.330;2022-09-24T07:51:50;98831.13;;;12.95;100.00
24762;BME280;12865;51.934;10.330;2022-09-24T07:54:36;98833.63;;;13.05;99.95
24762;BME280;12865;51.934;10.330;2022-09-24T07:57:22;98830.00;;;13.14;100.00
24762;BME280;12865;51.934;10.330;2022-09-24T08:00:08;98834.34;;;13.15;98.38
24762;BME280;12865;51.934;10.330;2022-09-24T08:02:54;98829.34;;;13.20;98.47
24762;BME280;12865;51.934;10.330;2022-09-24T08:05:44;98831.88;;;13.29;97.24
24762;BME280;12865;51.934;10.330;2022-09-24T08:08:30;98827.50;;;13.36;96.64
24762;BME280;12865;51.934;10.330;2022-09-24T08:11:15;98831.84;;;13.54;97.22
24762;BME280;12865;51.934;10.330;2022-09-24T08:14:04;98834.19;;;13.73;95.40
24762;BME280;12865;51.934;10.330;2022-09-24T08:16:50;98838.03;;;13.79;95.25
24762;BME280;12865;51.934;10.330;2022-09-24T08:19:35;98828.97;;;13.88;94.29
24762;BME280;12865;51.934;10.330;2022-09-24T08:22:22;98834.47;;;14.02;94.54
24762;BME280;12865;51.934;10.330;2022-09-24T08:25:08;98834.44;;;14.19;94.49
24762;BME280;12865;51.934;10.330;2022-09-24T08:27:54;98834.38;;;14.35;93.44
24762;BME280;12865;51.934;10.330;2022-09-24T08:30:40;98838.06;;;14.50;92.98
24762;BME280;12865;51.934;10.330;2022-09-24T08:33:30;98826.75;;;14.63;91.56
24762;BME280;12865;51.934;10.330;2022-09-24T08:36:16;98832.84;;;14.79;91.18
24762;BME280;12865;51.934;10.330;2022-09-24T08:39:05;98829.41;;;14.93;89.56
24762;BME280;12865;51.934;10.330;2022-09-24T08:41:59;98836.41;;;15.03;88.24
24762;BME280;12865;51.934;10.330;2022-09-24T08:44:48;98837.34;;;15.18;88.35
24762;BME280;12865;51.934;10.330;2022-09-24T08:47:59;98838.88;;;15.35;81.68
24762;BME280;12865;51.934;10.330;2022-09-24T08:50:55;98834.38;;;15.58;79.25
24762;BME280;12865;51.934;10.330;2022-09-24T08:53:49;98844.59;;;15.78;76.89
24762;BME280;12865;51.934;10.330;2022-09-24T08:56:41;98847.13;;;15.94;73.92
24762;BME280;12865;51.934;10.330;2022-09-24T09:05:46;98844.75;;;16.14;68.46
24762;BME280;12865;51.934;10.330;2022-09-24T09:11:46;98855.44;;;16.36;69.68
24762;BME280;12865;51.934;10.330;2022-09-24T09:20:16;98856.38;;;16.43;71.03
24762;BME280;12865;51.934;10.330;2022-09-24T09:23:13;98860.06;;;16.42;75.10
24762;BME280;12865;51.934;10.330;2022-09-24T09:26:01;98853.84;;;16.42;75.12
24762;BME280;12865;51.934;10.330;2022-09-24T09:28:47;98858.31;;;16.35;75.05
24762;BME280;12865;51.934;10.330;2022-09-24T09:38:01;98847.34;;;16.07;74.16
24762;BME280;12865;51.934;10.330;2022-09-24T09:44:19;98856.16;;;16.16;74.57
24762;BME280;12865;51.934;10.330;2022-09-24T09:49:56;98850.59;;;16.17;73.11
24762;BME280;12865;51.934;10.330;2022-09-24T09:52:45;98847.25;;;16.15;75.00
24762;BME280;12865;51.934;10.330;2022-09-24T09:55:36;98855.78;;;16.33;75.41
24762;BME280;12865;51.934;10.330;2022-09-24T09:58:24;98854.97;;;16.18;78.04
24762;BME280;12865;51.934;10.330;2022-09-24T10:01:15;98858.59;;;16.25;79.64
24762;BME280;12865;51.934;10.330;2022-09-24T10:04:04;98852.25;;;16.47;78.99
24762;BME280;12865;51.934;10.330;2022-09-24T10:06:50;98848.66;;;16.40;80.22
24762;BME280;12865;51.934;10.330;2022-09-24T10:09:36;98847.34;;;16.51;80.49
24762;BME280;12865;51.934;10.330;2022-09-24T10:12:23;98848.22;;;16.66;79.97
24762;BME280;12865;51.934;10.330;2022-09-24T10:17:59;98845.09;;;16.84;77.84
24762;BME280;12865;51.934;10.330;2022-09-24T10:20:46;98842.41;;;16.84;76.50
24762;BME280;12865;51.934;10.330;2022-09-24T10:23:38;98845.34;;;17.04;78.03
24762;BME280;12865;51.934;10.330;2022-09-24T10:26:39;98843.19;;;17.14;77.26
24762;BME280;12865;51.934;10.330;2022-09-24T10:29:25;98843.25;;;17.20;75.19
24762;BME280;12865;51.934;10.330;2022-09-24T10:32:32;98841.03;;;17.24;73.37
24762;BME280;12865;51.934;10.330;2022-09-24T10:35:25;98845.75;;;17.22;72.27
24762;BME280;12865;51.934;10.330;2022-09-24T10:38:17;98846.97;;;17.19;73.43
24762;BME280;12865;51.934;10.330;2022-09-24T10:41:14;98846.06;;;17.12;75.37
24762;BME280;12865;51.934;10.330;2022-09-24T10:44:09;98847.00;;;17.05;75.68
24762;BME280;12865;51.934;10.330;2022-09-24T10:50:05;98849.53;;;17.06;74.47
24762;BME280;12865;51.934;10.330;2022-09-24T10:52:56;98851.63;;;17.11;73.77
24762;BME280;12865;51.934;10.330;2022-09-24T10:55:52;98850.78;;;17.10;72.66
24762;BME280;12865;51.934;10.330;2022-09-24T10:59:06;98845.50;;;17.38;72.19
24762;BME280;12865;51.934;10.330;2022-09-24T11:05:01;98847.31;;;17.74;67.54
24762;BME280;12865;51.934;10.330;2022-09-24T11:14:14;98846.16;;;17.83;62.25
24762;BME280;12865;51.934;10.330;2022-09-24T11:17:25;98845.56;;;17.87;62.20
24762;BME280;12865;51.934;10.330;2022-09-24T11:23:23;98849.56;;;17.70;63.28
24762;BME280;12865;51.934;10.330;2022-09-24T11:26:31;98852.75;;;17.80;64.11
24762;BME280;12865;51.934;10.330;2022-09-24T11:36:12;98846.88;;;17.98;62.86
24762;BME280;12865;51.934;10.330;2022-09-24T11:45:21;98832.50;;;18.19;62.79
24762;BME280;12865;51.934;10.330;2022-09-24T11:51:59;98849.44;;;18.06;62.89
24762;BME280;12865;51.934;10.330;2022-09-24T11:54:58;98841.63;;;18.18;62.78
24762;BME280;12865;51.934;10.330;2022-09-24T11:58:03;98836.66;;;18.15;61.87
24762;BME280;12865;51.934;10.330;2022-09-24T12:00:58;98840.69;;;18.32;62.48
24762;BME280;12865;51.934;10.330;2022-09-24T12:06:45;98840.38;;;18.14;64.56
24762;BME280;12865;51.934;10.330;2022-09-24T12:09:50;98837.75;;;18.27;65.76
24762;BME280;12865;51.934;10.330;2022-09-24T12:12:40;98823.16;;;18.15;66.68
24762;BME280;12865;51.934;10.330;2022-09-24T12:15:32;98832.75;;;18.24;66.38
24762;BME280;12865;51.934;10.330;2022-09-24T12:18:26;98833.06;;;18.08;69.22
24762;BME280;12865;51.934;10.330;2022-09-24T12:21:17;98825.16;;;18.06;69.99
24762;BME280;12865;51.934;10.330;2022-09-24T12:24:48;98823.88;;;17.74;70.77
24762;BME280;12865;51.934;10.330;2022-09-24T12:27:37;98825.59;;;17.60;72.73
24762;BME280;12865;51.934;10.330;2022-09-24T12:30:39;98823.59;;;17.90;71.76
24762;BME280;12865;51.934;10.330;2022-09-24T12:37:15;98826.53;;;17.95;70.26
24762;BME280;12865;51.934;10.330;2022-09-24T12:40:33;98825.53;;;17.75;70.86
24762;BME280;12865;51.934;10.330;2022-09-24T12:43:37;98824.16;;;17.79;71.27
24762;BME280;12865;51.934;10.330;2022-09-24T12:46:28;98830.38;;;17.58;71.95
24762;BME280;12865;51.934;10.330;2022-09-24T12:52:20;98826.94;;;17.92;70.18
24762;BME280;12865;51.934;10.330;2022-09-24T12:58:20;98823.16;;;18.49;67.80
24762;BME280;12865;51.934;10.330;2022-09-24T13:01:13;98819.06;;;18.60;67.12
24762;BME280;12865;51.934;10.330;2022-09-24T13:06:59;98826.88;;;18.48;69.81
24762;BME280;12865;51.934;10.330;2022-09-24T13:09:44;98819.09;;;17.97;69.90
24762;BME280;12865;51.934;10.330;2022-09-24T13:12:31;98822.44;;;17.99;71.15
24762;BME280;12865;51.934;10.330;2022-09-24T13:15:31;98831.81;;;17.82;72.53
24762;BME280;12865;51.934;10.330;2022-09-24T13:18:21;98831.66;;;17.62;72.97
24762;BME280;12865;51.934;10.330;2022-09-24T13:21:18;98832.34;;;17.50;74.73
24762;BME280;12865;51.934;10.330;2022-09-24T13:24:10;98837.31;;;17.10;75.55
24762;BME280;12865;51.934;10.330;2022-09-24T13:27:19;98832.09;;;17.02;76.46
24762;BME280;12865;51.934;10.330;2022-09-24T13:38:49;98832.66;;;16.83;74.45
24762;BME280;12865;51.934;10.330;2022-09-24T13:45:04;98835.50;;;16.96;73.74
24762;BME280;12865;51.934;10.330;2022-09-24T13:48:04;98832.34;;;17.07;73.90
24762;BME280;12865;51.934;10.330;2022-09-24T13:50:58;98833.53;;;17.05;73.78
24762;BME280;12865;51.934;10.330;2022-09-24T13:53:51;98832.53;;;17.06;74.07
24762;BME280;12865;51.934;10.330;2022-09-24T13:56:39;98830.91;;;17.11;74.35
24762;BME280;12865;51.934;10.330;2022-09-24T13:59:25;98828.88;;;17.13;75.25
24762;BME280;12865;51.934;10.330;2022-09-24T14:02:23;98836.63;;;17.02;73.69
24762;BME280;12865;51.934;10.330;2022-09-24T14:05:17;98833.41;;;16.92;74.20
24762;BME280;12865;51.934;10.330;2022-09-24T14:10:32;98829.38;;;17.02;75.61
24762;BME280;12865;51.934;10.330;2022-09-24T14:13:25;98829.38;;;17.02;75.61
24762;BME280;12865;51.934;10.330;2022-09-24T14:16:14;98831.19;;;16.95;76.54
24762;BME280;12865;51.934;10.330;2022-09-24T14:19:03;98830.53;;;16.93;78.05
24762;BME280;12865;51.934;10.330;2022-09-24T14:21:52;98831.63;;;16.99;78.96
24762;BME280;12865;51.934;10.330;2022-09-24T14:25:06;98826.13;;;17.07;80.33
24762;BME280;12865;51.934;10.330;2022-09-24T14:27:53;98829.03;;;16.91;80.90
24762;BME280;12865;51.934;10.330;2022-09-24T14:30:49;98822.47;;;16.78;80.68
24762;BME280;12865;51.934;10.330;2022-09-24T14:33:37;98829.47;;;16.73;81.21
24762;BME280;12865;51.934;10.330;2022-09-24T14:36:24;98838.53;;;16.57;80.60
24762;BME280;12865;51.934;10.330;2022-09-24T14:39:13;98839.19;;;16.44;80.32
24762;BME280;12865;51.934;10.330;2022-09-24T14:41:59;98840.69;;;16.32;79.97
24762;BME280;12865;51.934;10.330;2022-09-24T14:44:45;98843.91;;;16.13;80.92
24762;BME280;12865;51.934;10.330;2022-09-24T14:47:33;98839.09;;;16.23;81.17
24762;BME280;12865;51.934;10.330;2022-09-24T14:50:39;98834.38;;;16.10;81.60
24762;BME280;12865;51.934;10.330;2022-09-24T14:53:35;98838.50;;;15.98;81.59
24762;BME280;12865;51.934;10.330;2022-09-24T14:56:29;98836.00;;;15.82;83.65
24762;BME280;12865;51.934;10.330;2022-09-24T14:59:28;98846.75;;;15.82;85.35
24762;BME280;12865;51.934;10.330;2022-09-24T15:02:21;98846.94;;;15.81;84.12
24762;BME280;12865;51.934;10.330;2022-09-24T15:05:08;98846.44;;;15.77;85.96
24762;BME280;12865;51.934;10.330;2022-09-24T15:11:04;98835.69;;;15.62;89.07
24762;BME280;12865;51.934;10.330;2022-09-24T15:14:42;98832.25;;;15.46;90.96
24762;BME280;12865;51.934;10.330;2022-09-24T15:17:20;98839.81;;;15.42;92.17
24762;BME280;12865;51.934;10.330;2022-09-24T15:20:09;98834.72;;;15.32;93.40
24762;BME280;12865;51.934;10.330;2022-09-24T15:22:56;98835.78;;;15.46;94.06
24762;BME280;12865;51.934;10.330;2022-09-24T15:25:41;98835.06;;;15.52;94.59
24762;BME280;12865;51.934;10.330;2022-09-24T15:28:28;98830.31;;;15.62;94.72
24762;BME280;12865;51.934;10.330;2022-09-24T15:31:14;98836.13;;;15.43;96.65
24762;BME280;12865;51.934;10.330;2022-09-24T15:33:59;98833.44;;;15.43;96.54
24762;BME280;12865;51.934;10.330;2022-09-24T15:36:51;98828.72;;;15.45;95.83
24762;BME280;12865;51.934;10.330;2022-09-24T15:39:38;98827.97;;;15.37;97.86
24762;BME280;12865;51.934;10.330;2022-09-24T15:42:25;98830.97;;;15.42;99.46
24762;BME280;12865;51.934;10.330;2022-09-24T15:45:19;98840.88;;;15.41;95.37
24762;BME280;12865;51.934;10.330;2022-09-24T15:48:05;98834.00;;;15.39;96.54
24762;BME280;12865;51.934;10.330;2022-09-24T15:50:51;98830.47;;;15.38;96.73
24762;BME280;12865;51.934;10.330;2022-09-24T15:53:37;98831.75;;;15.42;96.21
24762;BME280;12865;51.934;10.330;2022-09-24T15:56:23;98823.19;;;15.47;93.25
24762;BME280;12865;51.934;10.330;2022-09-24T15:59:12;98830.88;;;15.50;93.74
24762;BME280;12865;51.934;10.330;2022-09-24T16:02:01;98828.06;;;15.43;94.59
24762;BME280;12865;51.934;10.330;2022-09-24T16:04:48;98826.38;;;15.42;94.81
24762;BME280;12865;51.934;10.330;2022-09-24T16:07:33;98830.13;;;15.41;95.26
24762;BME280;12865;51.934;10.330;2022-09-24T16:10:19;98836.63;;;15.47;95.04
24762;BME280;12865;51.934;10.330;2022-09-24T16:13:05;98835.91;;;15.30;96.52
24762;BME280;12865;51.934;10.330;2022-09-24T16:15:52;98840.91;;;15.10;97.93
24762;BME280;12865;51.934;10.330;2022-09-24T16:18:37;98844.59;;;15.09;98.21
24762;BME280;12865;51.934;10.330;2022-09-24T16:21:25;98843.75;;;15.09;98.00
24762;BME280;12865;51.934;10.330;2022-09-24T16:24:10;98845.72;;;15.15;97.51
24762;BME280;12865;51.934;10.330;2022-09-24T16:26:56;98846.63;;;15.07;97.73
24762;BME280;12865;51.934;10.330;2022-09-24T16:29:43;98848.66;;;15.05;94.38
24762;BME280;12865;51.934;10.330;2022-09-24T16:32:29;98843.22;;;14.90;92.99
24762;BME280;12865;51.934;10.330;2022-09-24T16:35:15;98850.56;;;14.97;93.90